Time;durP1;ratioP1;P1;durP2;ratioP2;P2;SDS_P1;SDS_P2;PMS_P1;PMS_P2;Temp;Humidity;BMP_temperature;BMP_pressure;BME280_temperature;BME280_humidity;BME280_pressure;Samples;Min_cycle;Max_cycle;Signal;HPM_P1;HPM_P2
2023/07/14 00:00:54;;;;;;;6.00;2.60;;;13.30;99.90;;;;;;7374354;32;20138;-54
2023/07/14 00:04:56;;;;;;;4.30;2.33;;;13.30;99.90;;;;;;7374993;32;20124;-54
2023/07/14 00:08:57;;;;;;;3.37;2.45;;;13.20;99.90;;;;;;7379150;32;20719;-55
2023/07/14 00:13:03;;;;;;;4.85;2.67;;;13.30;99.90;;;;;;7380489;32;20433;-54
2023/07/14 00:17:09;;;;;;;3.85;2.40;;;13.20;99.90;;;;;;7375061;32;20550;-55
2023/07/14 00:21:21;;;;;;;13.43;2.80;;;13.20;99.90;;;;;;7376816;32;20193;-54
2023/07/14 00:25:24;;;;;;;5.45;2.42;;;13.20;99.90;;;;;;7377662;32;20158;-54
2023/07/14 00:29:26;;;;;;;8.98;3.03;;;13.20;99.90;;;;;;7382574;32;20504;-54
2023/07/14 00:33:29;;;;;;;6.45;2.90;;;13.30;99.90;;;;;;7379028;32;20637;-54
2023/07/14 00:37:31;;;;;;;6.70;3.15;;;13.30;99.90;;;;;;7371707;32;20187;-54
2023/07/14 00:41:33;;;;;;;4.97;2.58;;;13.40;99.90;;;;;;7374014;32;20564;-54
2023/07/14 00:45:36;;;;;;;5.65;3.03;;;13.40;99.90;;;;;;7379363;32;20265;-54
2023/07/14 00:49:40;;;;;;;4.62;2.62;;;13.50;99.90;;;;;;7364115;32;20768;-54
2023/07/14 00:53:46;;;;;;;5.82;2.60;;;13.40;99.90;;;;;;7376805;32;20497;-55
2023/07/14 00:57:49;;;;;;;5.35;2.80;;;13.40;99.90;;;;;;7371811;32;20133;-55
2023/07/14 01:02:10;;;;;;;3.17;2.50;;;13.50;99.90;;;;;;7374060;32;20202;-54
2023/07/14 01:06:17;;;;;;;4.37;2.20;;;13.60;99.90;;;;;;7372162;32;20213;-54
2023/07/14 01:10:21;;;;;;;;;;;13.50;99.90;;;;;;7372100;32;20104;-54
2023/07/14 01:14:27;;;;;;;7.18;2.58;;;13.50;99.90;;;;;;7370153;32;20006;-54
2023/07/14 01:18:29;;;;;;;6.47;2.75;;;13.60;99.90;;;;;;7378501;32;20106;-54
2023/07/14 01:22:45;;;;;;;3.58;2.55;;;13.70;99.90;;;;;;7377317;32;20111;-54
2023/07/14 01:26:59;;;;;;;4.97;2.37;;;13.80;99.90;;;;;;7379780;32;20476;-54
2023/07/14 01:31:02;;;;;;;5.05;2.58;;;13.90;99.90;;;;;;7376660;32;20118;-55
2023/07/14 01:35:07;;;;;;;5.47;2.45;;;13.90;99.90;;;;;;7365319;32;20111;-54
2023/07/14 01:39:10;;;;;;;4.60;2.28;;;13.90;99.90;;;;;;7375179;32;20480;-55
2023/07/14 01:43:12;;;;;;;3.70;2.50;;;14.00;99.90;;;;;;7376607;32;20457;-54
2023/07/14 01:47:15;;;;;;;4.18;2.10;;;14.00;99.90;;;;;;7373502;32;20478;-54
2023/07/14 01:51:19;;;;;;;7.70;2.47;;;13.90;99.90;;;;;;7364873;32;20159;-55
2023/07/14 01:55:23;;;;;;;7.12;2.03;;;14.00;99.90;;;;;;7372476;32;20182;-54
2023/07/14 01:59:30;;;;;;;5.22;2.50;;;14.00;99.90;;;;;;7378016;32;20129;-54
2023/07/14 02:03:39;;;;;;;7.60;2.50;;;14.00;99.90;;;;;;7369526;32;20277;-54
2023/07/14 02:07:42;;;;;;;6.28;2.47;;;14.10;99.90;;;;;;7363752;32;20189;-54
2023/07/14 02:11:50;;;;;;;5.28;2.40;;;14.40;99.90;;;;;;7369771;32;20127;-54
2023/07/14 02:15:54;;;;;;;5.35;2.20;;;14.50;99.90;;;;;;7380002;32;20478;-54
2023/07/14 02:19:57;;;;;;;6.18;2.37;;;14.70;99.90;;;;;;7367992;32;20126;-54
2023/07/14 02:24:00;;;;;;;5.55;2.20;;;14.80;99.90;;;;;;7380364;32;20473;-54
2023/07/14 02:28:02;;;;;;;5.20;2.50;;;14.80;99.90;;;;;;7379747;32;20103;-54
2023/07/14 02:32:28;;;;;;;5.47;1.95;;;14.90;99.90;;;;;;7366932;32;20133;-55
2023/07/14 02:36:43;;;;;;;5.65;2.37;;;14.90;99.90;;;;;;7363399;32;20479;-54
2023/07/14 02:41:00;;;;;;;7.18;2.47;;;15.00;99.90;;;;;;7366168;32;20129;-54
2023/07/14 02:45:03;;;;;;;5.53;1.98;;;14.90;99.90;;;;;;7359924;32;20474;-54
2023/07/14 02:49:06;;;;;;;4.22;1.90;;;14.90;99.90;;;;;;7362098;32;20111;-55
2023/07/14 02:53:08;;;;;;;6.82;2.10;;;14.90;99.90;;;;;;7369304;32;20502;-54
2023/07/14 02:57:10;;;;;;;5.47;2.30;;;14.90;99.90;;;;;;7366434;32;20102;-55
2023/07/14 03:01:11;;;;;;;6.05;2.20;;;14.80;99.90;;;;;;7379293;32;20127;-55
2023/07/14 03:05:14;;;;;;;5.47;2.30;;;14.90;99.90;;;;;;7372296;32;20111;-54
2023/07/14 03:09:16;;;;;;;5.45;2.30;;;14.80;99.90;;;;;;7369294;32;20604;-54
2023/07/14 03:13:18;;;;;;;5.75;2.30;;;14.80;99.90;;;;;;7377106;32;20384;-55
2023/07/14 03:17:20;;;;;;;5.72;2.40;;;14.70;99.90;;;;;;7378174;32;20129;-54
2023/07/14 03:21:21;;;;;;;6.97;2.37;;;14.60;99.90;;;;;;7379482;32;20135;-54
2023/07/14 03:25:23;;;;;;;5.75;2.55;;;14.60;99.90;;;;;;7371775;32;20122;-54
2023/07/14 03:29:25;;;;;;;4.57;2.37;;;14.60;99.90;;;;;;7378709;32;20179;-55
2023/07/14 03:33:29;;;;;;;3.50;2.30;;;14.60;99.90;;;;;;7377648;32;20208;-55
2023/07/14 03:37:30;;;;;;;5.15;2.35;;;14.60;99.90;;;;;;7365077;32;20179;-55
2023/07/14 03:41:32;;;;;;;5.93;2.62;;;14.60;99.90;;;;;;7377593;32;20648;-55
2023/07/14 03:45:34;;;;;;;5.75;2.67;;;14.70;99.90;;;;;;7378547;32;20569;-55
2023/07/14 03:49:36;;;;;;;6.25;2.70;;;14.60;99.90;;;;;;7378665;32;20757;-56
2023/07/14 03:53:38;;;;;;;5.30;2.35;;;14.60;99.90;;;;;;7376343;32;20222;-55
2023/07/14 03:57:40;;;;;;;4.47;2.45;;;14.60;99.90;;;;;;7375286;32;20142;-55
2023/07/14 04:02:02;;;;;;;5.75;2.35;;;14.60;99.90;;;;;;7381711;32;20220;-55
2023/07/14 04:06:04;;;;;;;6.22;2.70;;;14.60;99.90;;;;;;7381630;32;20123;-55
2023/07/14 04:10:08;;;;;;;4.75;2.40;;;14.70;99.90;;;;;;7379573;32;20100;-55
2023/07/14 04:14:10;;;;;;;7.85;2.87;;;14.80;99.90;;;;;;7382669;32;20122;-55
2023/07/14 04:18:13;;;;;;;8.93;2.83;;;14.90;99.90;;;;;;7380258;32;20098;-55
2023/07/14 04:22:15;;;;;;;6.50;2.72;;;14.90;99.90;;;;;;7375978;32;20103;-56
2023/07/14 04:26:18;;;;;;;7.30;2.60;;;15.00;99.90;;;;;;7369079;32;20243;-56
2023/07/14 04:30:20;;;;;;;6.20;2.85;;;15.00;99.90;;;;;;7379688;32;20119;-57
2023/07/14 04:34:22;;;;;;;8.02;2.53;;;15.20;99.90;;;;;;7375827;32;20235;-56
2023/07/14 04:38:24;;;;;;;6.85;2.83;;;15.20;99.90;;;;;;7372441;32;20527;-56
2023/07/14 04:42:26;;;;;;;7.18;2.67;;;15.30;99.90;;;;;;7370842;32;20111;-56
2023/07/14 04:46:28;;;;;;;6.68;2.87;;;15.20;99.90;;;;;;7364455;32;20201;-56
2023/07/14 04:50:30;;;;;;;5.40;2.58;;;15.30;99.90;;;;;;7374883;32;20599;-57
2023/07/14 04:54:32;;;;;;;4.25;2.62;;;15.40;99.90;;;;;;7378700;32;20217;-57
2023/07/14 04:58:34;;;;;;;6.53;2.60;;;15.50;99.90;;;;;;7374682;32;20134;-57
2023/07/14 05:02:36;;;;;;;9.52;2.72;;;15.70;99.90;;;;;;7380111;32;20115;-57
2023/07/14 05:06:39;;;;;;;7.60;2.62;;;15.70;99.90;;;;;;7379712;32;20115;-57
2023/07/14 05:10:41;;;;;;;5.45;2.53;;;15.80;99.90;;;;;;7377412;32;20477;-57
2023/07/14 05:14:42;;;;;;;4.90;2.30;;;15.90;99.90;;;;;;7379514;32;20198;-57
2023/07/14 05:18:45;;;;;;;5.95;2.35;;;16.00;99.90;;;;;;7373956;32;20165;-57
2023/07/14 05:22:52;;;;;;;7.93;2.55;;;16.10;99.90;;;;;;7376779;32;20170;-57
2023/07/14 05:26:55;;;;;;;5.32;2.58;;;16.20;99.90;;;;;;7374232;32;20141;-57
2023/07/14 05:30:58;;;;;;;4.28;2.10;;;16.30;99.90;;;;;;7381142;32;20111;-57
2023/07/14 05:35:06;;;;;;;4.70;2.53;;;16.40;99.90;;;;;;7381421;32;20310;-57
2023/07/14 05:39:09;;;;;;;6.10;2.40;;;16.50;99.90;;;;;;7380068;32;20183;-57
2023/07/14 05:43:11;;;;;;;9.40;2.65;;;16.60;99.90;;;;;;7380933;32;20688;-57
2023/07/14 05:47:13;;;;;;;12.07;2.65;;;16.70;99.90;;;;;;7379475;32;20168;-57
2023/07/14 05:51:16;;;;;;;9.73;2.78;;;16.70;99.90;;;;;;7380480;32;20554;-58
2023/07/14 05:55:18;;;;;;;5.70;2.60;;;16.90;99.90;;;;;;7378595;32;20508;-57
2023/07/14 05:59:20;;;;;;;5.20;2.47;;;17.30;99.90;;;;;;7373872;32;20148;-57
2023/07/14 06:03:22;;;;;;;5.43;2.45;;;18.00;99.90;;;;;;7380539;32;20148;-58
2023/07/14 06:07:25;;;;;;;4.32;2.00;;;18.70;99.90;;;;;;7379605;32;20103;-57
2023/07/14 06:11:27;;;;;;;8.15;2.35;;;19.30;99.90;;;;;;7372408;32;20111;-57
2023/07/14 06:15:29;;;;;;;6.22;2.33;;;19.80;99.90;;;;;;7380036;32;20103;-57
2023/07/14 06:19:31;;;;;;;3.75;2.03;;;20.60;99.90;;;;;;7375871;32;20145;-56
2023/07/14 06:23:34;;;;;;;5.10;2.25;;;21.50;99.90;;;;;;7378181;32;20175;-56
2023/07/14 06:27:35;;;;;;;4.55;2.15;;;22.20;99.90;;;;;;7380112;32;20134;-56
2023/07/14 06:31:38;;;;;;;5.05;2.08;;;22.90;99.90;;;;;;7376133;32;20106;-57
2023/07/14 06:35:40;;;;;;;9.38;1.70;;;23.60;99.90;;;;;;7375329;32;20104;-58
2023/07/14 06:39:43;;;;;;;6.37;2.45;;;23.60;99.90;;;;;;7374964;32;20198;-58
2023/07/14 06:43:45;;;;;;;7.97;2.03;;;23.70;99.90;;;;;;7359671;32;20142;-58
2023/07/14 06:47:46;;;;;;;5.18;2.08;;;24.10;99.90;;;;;;7374090;32;20182;-57
2023/07/14 06:51:48;;;;;;;4.97;1.77;;;24.00;99.90;;;;;;7376405;32;20139;-57
2023/07/14 06:55:51;;;;;;;5.53;1.98;;;23.90;99.90;;;;;;7363415;32;20138;-56
2023/07/14 06:59:53;;;;;;;6.43;1.90;;;23.70;99.90;;;;;;7372182;32;20129;-57
2023/07/14 07:03:55;;;;;;;7.30;2.47;;;23.80;99.90;;;;;;7374369;32;20482;-56
2023/07/14 07:07:57;;;;;;;6.37;2.20;;;24.10;99.90;;;;;;7370483;32;20111;-57
2023/07/14 07:11:59;;;;;;;4.60;2.08;;;24.20;99.90;;;;;;7375404;32;20148;-57
2023/07/14 07:16:01;;;;;;;4.65;2.17;;;24.40;99.90;;;;;;7373151;32;20213;-57
2023/07/14 07:20:06;;;;;;;5.43;2.03;;;24.50;99.90;;;;;;7370587;32;20616;-57
2023/07/14 07:24:09;;;;;;;4.60;2.10;;;24.10;99.90;;;;;;7373682;32;20112;-57
2023/07/14 07:28:11;;;;;;;9.90;2.05;;;23.70;99.90;;;;;;7366352;32;20166;-57
2023/07/14 07:32:13;;;;;;;5.50;1.92;;;23.60;99.90;;;;;;7384288;32;20206;-57
2023/07/14 07:36:15;;;;;;;3.55;1.85;;;23.90;99.90;;;;;;7382918;32;20107;-57
2023/07/14 07:40:18;;;;;;;4.65;1.75;;;23.80;99.90;;;;;;7375420;32;20473;-56
2023/07/14 07:44:19;;;;;;;4.37;1.70;;;23.30;99.90;;;;;;7383555;32;20099;-56
2023/07/14 07:48:21;;;;;;;4.37;2.10;;;23.10;99.90;;;;;;7382564;32;20604;-57
2023/07/14 07:52:23;;;;;;;5.90;2.05;;;22.60;99.90;;;;;;7382026;32;20234;-56
2023/07/14 07:56:25;;;;;;;3.92;1.58;;;22.10;99.90;;;;;;7382774;32;20141;-57
2023/07/14 08:00:27;;;;;;;2.90;1.50;;;22.00;99.90;;;;;;7374088;32;20108;-56
2023/07/14 08:04:29;;;;;;;5.70;1.45;;;22.10;99.90;;;;;;7375633;32;20203;-57
2023/07/14 08:08:32;;;;;;;4.25;1.70;;;22.20;99.90;;;;;;7379815;32;20112;-57
2023/07/14 08:12:35;;;;;;;3.15;1.42;;;22.50;99.90;;;;;;7383247;32;20521;-56
2023/07/14 08:16:37;;;;;;;4.78;1.83;;;23.10;99.90;;;;;;7381780;32;20198;-57
2023/07/14 08:20:38;;;;;;;4.43;1.50;;;23.70;99.90;;;;;;7378110;32;20268;-57
2023/07/14 08:24:40;;;;;;;6.25;1.70;;;24.50;99.90;;;;;;7381001;32;20339;-57
2023/07/14 08:28:42;;;;;;;4.57;1.65;;;24.60;99.90;;;;;;7382501;32;20599;-57
2023/07/14 08:32:44;;;;;;;5.45;2.03;;;24.50;99.90;;;;;;7381007;32;20111;-57
2023/07/14 08:36:48;;;;;;;4.65;1.73;;;24.60;99.90;;;;;;7381951;32;20114;-57
2023/07/14 08:40:54;;;;;;;4.65;2.03;;;24.60;99.90;;;;;;7380946;32;20153;-57
2023/07/14 08:45:12;;;;;;;5.97;2.35;;;24.40;99.90;;;;;;7376481;32;20253;-56
2023/07/14 08:49:27;;;;;;;4.75;2.08;;;24.70;99.90;;;;;;7372313;32;20346;-57
2023/07/14 08:53:32;;;;;;;7.28;1.65;;;24.30;99.90;;;;;;7379151;32;20106;-57
2023/07/14 08:57:48;;;;;;;6.32;1.65;;;23.80;99.90;;;;;;7378496;32;20122;-57
2023/07/14 09:01:53;;;;;;;5.07;1.67;;;23.70;99.90;;;;;;7375266;32;20225;-57
2023/07/14 09:06:01;;;;;;;6.20;1.80;;;24.00;99.90;;;;;;7376745;32;20111;-56
2023/07/14 09:10:04;;;;;;;4.72;1.70;;;24.60;99.90;;;;;;7371173;32;20415;-57
2023/07/14 09:14:37;;;;;;;4.43;1.92;;;24.70;99.90;;;;;;7378154;32;20100;-57
2023/07/14 09:19:06;;;;;;;4.30;1.80;;;24.70;99.90;;;;;;7374971;32;20107;-57
2023/07/14 09:23:21;;;;;;;5.65;1.73;;;25.20;99.90;;;;;;7378043;32;20118;-56
2023/07/14 09:27:26;;;;;;;4.25;1.62;;;25.40;99.90;;;;;;7380053;32;20131;-57
2023/07/14 09:31:41;;;;;;;3.55;1.60;;;25.60;99.90;;;;;;7380136;32;20239;-57
2023/07/14 09:35:45;;;;;;;4.43;1.77;;;25.60;99.90;;;;;;7378699;32;20226;-57
2023/07/14 09:39:59;;;;;;;5.90;1.70;;;25.20;99.90;;;;;;7378998;32;20142;-56
2023/07/14 09:44:01;;;;;;;4.87;2.10;;;24.80;99.90;;;;;;7379323;32;20153;-56
2023/07/14 09:48:16;;;;;;;7.15;2.20;;;24.60;99.90;;;;;;7371625;32;20104;-56
2023/07/14 09:52:23;;;;;;;3.45;2.05;;;24.70;99.90;;;;;;7373972;32;20099;-57
2023/07/14 09:56:31;;;;;;;6.35;2.10;;;24.70;99.90;;;;;;7376575;32;20146;-57
2023/07/14 10:00:39;;;;;;;7.03;2.42;;;24.20;99.90;;;;;;7379796;32;20129;-57
2023/07/14 10:04:47;;;;;;;4.00;2.20;;;24.20;99.90;;;;;;7365598;32;20517;-57
2023/07/14 10:08:54;;;;;;;6.78;1.90;;;24.40;99.90;;;;;;7375860;32;20211;-56
2023/07/14 10:12:56;;;;;;;7.18;2.25;;;24.60;99.90;;;;;;7379066;32;20107;-56
2023/07/14 10:16:58;;;;;;;4.68;2.00;;;24.80;99.90;;;;;;7379845;32;20805;-57
2023/07/14 10:21:06;;;;;;;5.85;1.83;;;25.00;99.90;;;;;;7380418;32;20618;-56
2023/07/14 10:25:16;;;;;;;7.18;2.22;;;25.50;99.90;;;;;;7378649;32;20201;-56
2023/07/14 10:29:22;;;;;;;7.53;2.17;;;25.80;99.90;;;;;;7380074;32;20139;-57
2023/07/14 10:33:41;;;;;;;3.65;2.00;;;26.40;98.90;;;;;;7377123;32;20217;-57
2023/07/14 10:37:52;;;;;;;4.20;1.80;;;26.70;99.90;;;;;;7371381;32;20142;-57
2023/07/14 10:41:54;;;;;;;6.30;2.35;;;27.00;95.70;;;;;;7369235;32;20337;-57
2023/07/14 10:46:22;;;;;;;5.20;2.30;;;27.20;96.10;;;;;;7366909;32;20139;-57
2023/07/14 10:50:35;;;;;;;4.32;2.45;;;28.00;93.40;;;;;;7373542;32;20202;-57
2023/07/14 10:54:42;;;;;;;4.80;2.42;;;27.70;93.80;;;;;;7366687;32;20100;-57
2023/07/14 10:59:09;;;;;;;4.57;2.20;;;27.30;93.70;;;;;;7379698;32;20213;-56
2023/07/14 11:03:42;;;;;;;4.25;2.00;;;26.90;92.50;;;;;;7375996;32;20123;-57
2023/07/14 11:07:44;;;;;;;4.43;1.92;;;26.30;94.30;;;;;;7375219;32;20189;-57
2023/07/14 11:12:14;;;;;;;6.60;1.90;;;26.00;95.20;;;;;;7377640;32;20126;-57
2023/07/14 11:16:28;;;;;;;5.60;2.00;;;25.60;96.40;;;;;;7379319;32;20143;-57
2023/07/14 11:20:45;;;;;;;6.20;2.30;;;25.60;95.90;;;;;;7382734;32;20151;-57
2023/07/14 11:25:09;;;;;;;4.65;2.22;;;25.40;97.50;;;;;;7380193;32;20532;-57
2023/07/14 11:29:18;;;;;;;4.68;1.73;;;25.80;96.50;;;;;;7378345;32;20106;-56
2023/07/14 11:33:46;;;;;;;4.07;1.98;;;25.50;95.10;;;;;;7383432;32;20103;-57
2023/07/14 11:38:12;;;;;;;4.32;2.15;;;25.40;94.50;;;;;;7383833;32;20228;-56
2023/07/14 11:42:35;;;;;;;7.00;2.30;;;25.70;95.80;;;;;;7375102;32;20722;-57
2023/07/14 11:46:37;;;;;;;5.50;2.12;;;26.00;95.50;;;;;;7372551;32;20103;-56
2023/07/14 11:50:42;;;;;;;4.62;1.75;;;25.90;93.20;;;;;;7382961;32;20478;-57
2023/07/14 11:55:19;;;;;;;4.12;1.73;;;26.10;97.00;;;;;;7377887;32;20335;-57
2023/07/14 11:59:25;;;;;;;7.18;2.08;;;26.30;93.60;;;;;;7336929;32;20126;-57
2023/07/14 12:03:28;;;;;;;3.33;1.70;;;27.10;94.60;;;;;;7378918;32;20209;-57
2023/07/14 12:07:58;;;;;;;4.47;2.10;;;27.20;92.90;;;;;;7381077;32;20202;-57
2023/07/14 12:12:01;;;;;;;4.95;1.80;;;27.20;93.70;;;;;;7379231;32;20148;-57
2023/07/14 12:16:11;;;;;;;7.22;2.10;;;26.90;92.60;;;;;;7380960;32;20123;-56
2023/07/14 12:20:13;;;;;;;4.97;1.92;;;26.90;92.30;;;;;;7375454;32;20171;-57
2023/07/14 12:24:17;;;;;;;5.43;1.92;;;27.40;92.90;;;;;;7379129;32;20176;-56
2023/07/14 12:28:33;;;;;;;5.28;1.98;;;27.80;90.40;;;;;;7367461;32;20103;-57
2023/07/14 12:32:35;;;;;;;5.85;1.92;;;28.10;90.40;;;;;;7378824;32;20103;-57
2023/07/14 12:36:41;;;;;;;6.03;2.05;;;28.00;86.10;;;;;;7374450;32;20218;-57
2023/07/14 12:40:45;;;;;;;3.77;1.63;;;27.70;89.40;;;;;;7381512;32;20095;-57
2023/07/14 12:44:51;;;;;;;3.30;1.90;;;27.80;90.70;;;;;;7376532;32;20170;-57
2023/07/14 12:49:14;;;;;;;3.53;1.95;;;27.60;88.30;;;;;;7381467;32;20103;-57
2023/07/14 12:53:16;;;;;;;4.07;2.03;;;27.50;86.70;;;;;;7380671;32;20114;-57
2023/07/14 12:57:20;;;;;;;7.20;1.58;;;27.20;86.00;;;;;;7381228;32;20124;-57
2023/07/14 13:01:22;;;;;;;4.50;2.00;;;27.00;87.30;;;;;;7378715;32;20458;-56
2023/07/14 13:05:34;;;;;;;3.83;1.80;;;26.90;91.80;;;;;;7368789;32;20249;-57
2023/07/14 13:09:37;;;;;;;6.35;1.92;;;26.90;90.10;;;;;;7379531;32;20677;-57
2023/07/14 13:13:41;;;;;;;4.60;2.17;;;27.10;84.50;;;;;;7375624;32;20144;-56
2023/07/14 13:17:44;;;;;;;6.07;2.22;;;27.50;87.10;;;;;;7378226;32;20133;-57
2023/07/14 13:21:49;;;;;;;6.57;2.00;;;27.50;85.40;;;;;;7377152;32;20469;-57
2023/07/14 13:26:09;;;;;;;5.75;2.30;;;27.80;85.80;;;;;;7381111;32;20134;-57
2023/07/14 13:30:30;;;;;;;4.97;1.80;;;27.80;80.20;;;;;;7381300;32;20099;-57
2023/07/14 13:34:35;;;;;;;5.60;1.92;;;27.80;80.10;;;;;;7374575;32;20543;-57
2023/07/14 13:38:39;;;;;;;4.10;1.85;;;28.10;81.10;;;;;;7379799;32;20618;-57
2023/07/14 13:42:49;;;;;;;5.95;2.10;;;28.40;75.90;;;;;;7372968;32;20152;-57
2023/07/14 13:46:53;;;;;;;4.47;2.05;;;28.10;75.20;;;;;;7372781;32;20613;-57
2023/07/14 13:50:55;;;;;;;3.67;1.65;;;27.80;80.00;;;;;;7375129;32;20258;-57
2023/07/14 13:54:59;;;;;;;4.65;2.10;;;28.10;83.50;;;;;;7370075;32;20242;-58
2023/07/14 13:59:18;;;;;;;6.93;2.00;;;28.40;83.50;;;;;;7380566;32;20136;-57
2023/07/14 14:03:25;;;;;;;6.22;2.25;;;28.20;80.00;;;;;;7379421;32;20111;-57
2023/07/14 14:07:26;;;;;;;;;;;28.30;78.10;;;;;;7380279;32;20811;-57
2023/07/14 14:11:28;;;;;;;3.28;2.30;;;28.70;78.70;;;;;;7377151;32;20452;-57
2023/07/14 14:15:41;;;;;;;4.05;2.10;;;29.10;73.50;;;;;;7375081;32;20100;-57
2023/07/14 14:19:46;;;;;;;6.05;1.80;;;29.30;75.80;;;;;;7370299;32;20099;-57
2023/07/14 14:23:48;;;;;;;4.95;2.33;;;29.30;72.20;;;;;;7379371;32;20229;-57
2023/07/14 14:27:51;;;;;;;5.22;2.12;;;29.10;69.70;;;;;;7372498;32;20175;-57
2023/07/14 14:31:53;;;;;;;6.55;2.35;;;29.00;69.80;;;;;;7378771;32;20099;-57
2023/07/14 14:35:55;;;;;;;4.03;2.00;;;29.70;70.30;;;;;;7373228;32;20232;-57
2023/07/14 14:39:57;;;;;;;4.47;1.98;;;30.00;67.40;;;;;;7377462;32;20734;-57
2023/07/14 14:44:00;;;;;;;6.03;2.00;;;30.20;66.50;;;;;;7373555;32;20532;-57
2023/07/14 14:48:03;;;;;;;4.90;1.83;;;30.20;64.50;;;;;;7366365;32;20204;-57
2023/07/14 14:52:05;;;;;;;3.67;1.80;;;30.10;61.00;;;;;;7378374;32;20839;-56
2023/07/14 14:56:29;;;;;;;5.85;1.80;;;29.80;61.00;;;;;;7380083;32;20119;-57
2023/07/14 15:00:34;;;;;;;4.00;2.12;;;29.50;61.60;;;;;;7372870;32;20594;-57
2023/07/14 15:04:36;;;;;;;7.20;2.30;;;29.80;57.40;;;;;;7379459;32;20127;-57
2023/07/14 15:08:38;;;;;;;3.47;1.55;;;29.90;58.60;;;;;;7374511;32;20111;-57
2023/07/14 15:12:43;;;;;;;5.32;1.75;;;29.40;55.40;;;;;;7373502;32;20119;-57
2023/07/14 15:16:45;;;;;;;4.30;1.60;;;29.30;57.10;;;;;;7377923;32;20521;-57
2023/07/14 15:20:47;;;;;;;5.45;2.03;;;29.30;59.50;;;;;;7371705;32;20118;-57
2023/07/14 15:24:50;;;;;;;3.58;1.90;;;28.90;61.40;;;;;;7380363;32;20548;-57
2023/07/14 15:28:53;;;;;;;4.85;1.67;;;28.70;65.00;;;;;;7377585;32;20118;-57
2023/07/14 15:33:04;;;;;;;5.47;1.40;;;28.30;65.50;;;;;;7372073;32;20731;-57
2023/07/14 15:37:06;;;;;;;4.53;1.60;;;27.90;66.60;;;;;;7374719;32;20155;-57
2023/07/14 15:41:28;;;;;;;7.07;1.60;;;27.90;66.10;;;;;;7377806;32;20111;-57
2023/07/14 15:45:31;;;;;;;4.10;1.62;;;27.70;70.00;;;;;;7368836;32;20780;-57
2023/07/14 15:49:32;;;;;;;3.30;1.60;;;27.50;69.60;;;;;;7371121;32;20164;-56
2023/07/14 15:53:39;;;;;;;6.10;1.90;;;27.40;70.60;;;;;;7373428;32;20141;-56
2023/07/14 15:57:42;;;;;;;5.95;1.92;;;27.30;72.30;;;;;;7382730;32;20110;-56
2023/07/14 16:01:43;;;;;;;6.75;1.67;;;27.30;70.90;;;;;;7370841;32;20158;-56
2023/07/14 16:05:46;;;;;;;5.62;1.75;;;27.30;71.20;;;;;;7380680;32;20265;-56
2023/07/14 16:09:49;;;;;;;5.40;1.80;;;27.20;72.90;;;;;;7381799;32;20221;-56
2023/07/14 16:13:51;;;;;;;3.22;1.48;;;27.00;72.60;;;;;;7382395;32;20537;-56
2023/07/14 16:17:54;;;;;;;5.95;1.70;;;26.90;70.80;;;;;;7383819;32;20188;-56
2023/07/14 16:21:56;;;;;;;4.65;1.50;;;26.80;73.20;;;;;;7382335;32;20129;-56
2023/07/14 16:25:58;;;;;;;7.57;1.70;;;26.80;74.30;;;;;;7382611;32;20123;-56
2023/07/14 16:30:00;;;;;;;3.37;1.40;;;26.60;80.70;;;;;;7376095;32;20659;-57
2023/07/14 16:34:02;;;;;;;5.97;1.40;;;26.50;79.60;;;;;;7375283;32;20233;-56
2023/07/14 16:38:17;;;;;;;3.95;1.52;;;26.40;78.90;;;;;;7381588;32;20541;-56
2023/07/14 16:42:19;;;;;;;7.43;1.80;;;26.30;80.70;;;;;;7381160;32;20509;-56
2023/07/14 16:46:21;;;;;;;5.68;1.42;;;26.20;78.60;;;;;;7382590;32;20521;-56
2023/07/14 16:50:23;;;;;;;7.95;1.75;;;26.20;79.20;;;;;;7380832;32;20103;-56
2023/07/14 16:54:30;;;;;;;5.57;1.52;;;26.50;80.00;;;;;;7382435;32;20115;-56
2023/07/14 16:58:32;;;;;;;5.00;1.30;;;26.60;77.40;;;;;;7376058;32;20144;-56
2023/07/14 17:02:41;;;;;;;3.53;1.50;;;26.60;76.10;;;;;;7373435;32;20098;-56
2023/07/14 17:06:43;;;;;;;8.95;5.12;;;26.60;75.70;;;;;;7377526;32;20155;-56
2023/07/14 17:10:56;;;;;;;5.82;1.48;;;26.70;81.10;;;;;;7378962;32;20154;-56
2023/07/14 17:14:58;;;;;;;;;;;26.60;76.90;;;;;;7380848;32;20149;-56
2023/07/14 17:19:08;;;;;;;4.00;1.50;;;26.50;78.90;;;;;;7375930;32;20062;-57
2023/07/14 17:23:15;;;;;;;6.57;4.05;;;26.50;77.70;;;;;;7380645;32;20216;-57
2023/07/14 17:27:18;;;;;;;11.27;1.87;;;26.40;79.40;;;;;;7380703;32;20170;-57
2023/07/14 17:31:20;;;;;;;7.40;1.60;;;26.40;78.30;;;;;;7381582;32;20478;-58
2023/07/14 17:35:24;;;;;;;3.70;1.40;;;26.30;79.00;;;;;;7380125;32;20504;-57
2023/07/14 17:39:26;;;;;;;5.07;1.40;;;26.30;79.50;;;;;;7372843;32;20190;-58
2023/07/14 17:43:47;;;;;;;4.45;1.20;;;26.10;79.70;;;;;;7380253;32;20103;-57
2023/07/14 17:47:50;;;;;;;5.43;1.40;;;26.10;82.60;;;;;;7379219;32;20119;-58
2023/07/14 17:51:52;;;;;;;5.10;1.40;;;26.10;83.60;;;;;;7378656;32;20142;-57
2023/07/14 17:55:54;;;;;;;4.60;1.15;;;26.00;83.30;;;;;;7379034;32;20115;-57
2023/07/14 17:59:57;;;;;;;2.72;1.10;;;25.90;81.00;;;;;;7377449;32;20121;-57
2023/07/14 18:03:58;;;;;;;4.60;1.67;;;25.80;80.10;;;;;;7374349;32;20107;-57
2023/07/14 18:08:01;;;;;;;3.65;1.10;;;25.70;80.60;;;;;;7375600;32;20106;-57
2023/07/14 18:12:04;;;;;;;4.18;1.20;;;25.60;82.60;;;;;;7378913;32;20166;-57
2023/07/14 18:16:10;;;;;;;6.80;1.40;;;25.60;84.70;;;;;;7378936;32;20605;-58
2023/07/14 18:20:17;;;;;;;3.97;1.13;;;25.40;84.50;;;;;;7377742;32;20556;-57
2023/07/14 18:24:22;;;;;;;6.20;1.25;;;25.30;88.10;;;;;;7373291;32;20476;-57
2023/07/14 18:28:43;;;;;;;3.83;1.52;;;25.20;86.00;;;;;;7372912;32;20457;-58
2023/07/14 18:32:46;;;;;;;6.72;1.70;;;25.10;87.90;;;;;;7378504;32;20107;-57
2023/07/14 18:36:49;;;;;;;6.18;1.23;;;25.10;88.00;;;;;;7380256;32;20565;-57
2023/07/14 18:40:54;;;;;;;7.78;1.40;;;25.10;88.20;;;;;;7374790;32;20129;-57
2023/07/14 18:44:55;;;;;;;4.75;1.60;;;25.00;90.10;;;;;;7380276;32;20117;-57
2023/07/14 18:48:57;;;;;;;2.40;1.27;;;24.90;89.50;;;;;;7379272;32;20199;-57
2023/07/14 18:53:04;;;;;;;5.47;1.65;;;24.70;88.70;;;;;;7379029;32;20477;-56
2023/07/14 18:57:14;;;;;;;3.25;1.42;;;24.70;89.00;;;;;;7375965;32;20221;-57
2023/07/14 19:01:20;;;;;;;6.70;2.10;;;24.60;91.20;;;;;;7379982;32;20193;-57
2023/07/14 19:05:22;;;;;;;4.27;1.37;;;24.50;90.60;;;;;;7370817;32;20177;-57
2023/07/14 19:09:24;;;;;;;5.50;1.58;;;24.30;90.40;;;;;;7379213;32;20492;-56
2023/07/14 19:13:36;;;;;;;4.50;1.55;;;24.20;91.10;;;;;;7373248;32;20107;-57
2023/07/14 19:17:38;;;;;;;5.40;1.77;;;24.10;91.50;;;;;;7377097;32;20107;-57
2023/07/14 19:21:43;;;;;;;3.87;1.45;;;23.90;92.00;;;;;;7378177;32;20603;-56
2023/07/14 19:25:45;;;;;;;6.93;1.90;;;23.70;92.30;;;;;;7383621;32;20131;-57
2023/07/14 19:29:48;;;;;;;4.12;1.60;;;23.50;92.80;;;;;;7376464;32;20625;-57
2023/07/14 19:33:50;;;;;;;3.92;1.52;;;23.40;92.90;;;;;;7381542;32;20106;-57
2023/07/14 19:37:52;;;;;;;5.03;1.58;;;23.20;93.70;;;;;;7380973;32;20517;-57
2023/07/14 19:42:00;;;;;;;3.70;1.60;;;23.10;94.70;;;;;;7378460;32;20126;-57
2023/07/14 19:46:01;;;;;;;4.95;1.65;;;23.00;95.50;;;;;;7383999;32;20094;-57
2023/07/14 19:50:04;;;;;;;4.05;1.87;;;22.90;96.10;;;;;;7382345;32;20103;-57
2023/07/14 19:54:17;;;;;;;6.35;2.08;;;22.60;97.10;;;;;;7376364;32;20099;-57
2023/07/14 19:58:20;;;;;;;5.65;1.83;;;22.50;97.60;;;;;;7380210;32;20214;-57
2023/07/14 20:02:28;;;;;;;3.75;1.98;;;22.40;98.70;;;;;;7381976;32;20154;-56
2023/07/14 20:06:31;;;;;;;5.05;2.60;;;22.30;98.10;;;;;;7381277;32;20552;-56
2023/07/14 20:10:33;;;;;;;4.32;2.20;;;22.10;99.40;;;;;;7381045;32;20170;-55
2023/07/14 20:14:36;;;;;;;4.07;2.10;;;22.00;99.90;;;;;;7382626;32;20117;-56
2023/07/14 20:18:38;;;;;;;8.05;2.17;;;22.00;99.40;;;;;;7365939;32;20129;-55
2023/07/14 20:22:51;;;;;;;5.37;2.12;;;21.90;99.70;;;;;;7381260;32;20134;-56
2023/07/14 20:26:53;;;;;;;4.87;1.98;;;21.80;99.80;;;;;;7379478;32;20163;-56
2023/07/14 20:31:12;;;;;;;3.90;1.70;;;21.70;99.90;;;;;;7372223;32;20110;-56
2023/07/14 20:35:16;;;;;;;5.05;2.00;;;21.60;99.30;;;;;;7376445;32;20107;-55
2023/07/14 20:39:20;;;;;;;4.43;1.77;;;21.60;99.80;;;;;;7381510;32;20517;-56
2023/07/14 20:43:27;;;;;;;3.65;1.90;;;21.60;98.60;;;;;;7380631;32;20107;-55
2023/07/14 20:47:29;;;;;;;3.92;1.35;;;21.50;98.50;;;;;;7369244;32;20241;-55
2023/07/14 20:51:32;;;;;;;4.20;1.60;;;21.60;97.20;;;;;;7381109;32;20133;-56
2023/07/14 20:55:35;;;;;;;4.28;1.60;;;21.70;97.00;;;;;;7376586;32;20160;-56
2023/07/14 20:59:36;;;;;;;4.05;1.60;;;21.70;96.80;;;;;;7380497;32;20190;-56
2023/07/14 21:03:38;;;;;;;3.37;1.50;;;21.80;96.40;;;;;;7382072;32;20132;-55
2023/07/14 21:07:40;;;;;;;3.30;1.83;;;21.90;96.50;;;;;;7381047;32;20107;-56
2023/07/14 21:11:43;;;;;;;4.25;1.73;;;22.00;96.00;;;;;;7381338;32;20132;-57
2023/07/14 21:15:45;;;;;;;4.85;1.87;;;21.90;96.10;;;;;;7382703;32;20129;-56
2023/07/14 21:19:47;;;;;;;3.95;1.65;;;21.90;95.90;;;;;;7381128;32;20115;-55